createdAt,value
2022-09-18T00:01:36.612Z,99511.66
2022-09-18T00:05:38.285Z,99514.22
2022-09-18T00:09:46.743Z,99505.63
2022-09-18T00:13:48.850Z,99503.88
2022-09-18T00:17:50.585Z,99506.50
2022-09-18T00:21:52.025Z,99508.19
2022-09-18T00:25:53.473Z,99504.78
2022-09-18T00:30:01.775Z,99495.19
2022-09-18T00:34:14.469Z,99503.91
2022-09-18T00:38:16.080Z,99507.34
2022-09-18T00:42:25.861Z,99500.44
2022-09-18T00:46:38.760Z,99501.31
2022-09-18T00:50:46.717Z,99495.22
2022-09-18T00:54:50.683Z,99491.75
2022-09-18T00:58:52.001Z,99489.16
2022-09-18T01:02:53.997Z,99498.69
2022-09-18T01:06:58.587Z,99494.34
2022-09-18T01:11:00.137Z,99502.13
2022-09-18T01:15:11.217Z,99503.88
2022-09-18T01:19:15.911Z,99496.94
2022-09-18T01:23:36.197Z,99493.47
2022-09-18T01:27:49.876Z,99501.25
2022-09-18T01:32:07.841Z,99497.81
2022-09-18T01:36:11.790Z,99499.53
2022-09-18T01:40:20.078Z,99496.06
2022-09-18T01:44:23.400Z,99494.34
2022-09-18T01:48:38.744Z,99497.78
2022-09-18T01:52:43.973Z,99490.00
2022-09-18T01:56:48.302Z,99492.63
2022-09-18T02:00:57.689Z,99483.97
2022-09-18T02:05:00.575Z,99479.66
2022-09-18T02:09:02.698Z,99470.16
2022-09-18T02:13:11.817Z,99466.69
2022-09-18T02:17:28.869Z,99465.84
2022-09-18T02:21:30.592Z,99478.81
2022-09-18T02:25:52.192Z,99480.56
2022-09-18T02:29:54.071Z,99469.28
2022-09-18T02:34:01.980Z,99471.88
2022-09-18T02:38:14.029Z,99468.41
2022-09-18T02:42:23.938Z,99469.31
2022-09-18T02:46:43.981Z,99465.84
2022-09-18T02:51:07.783Z,99466.69
2022-09-18T02:55:11.807Z,99471.91
2022-09-18T02:59:26.206Z,99469.28
2022-09-18T03:03:28.451Z,99470.13
2022-09-18T03:07:36.931Z,99476.19
2022-09-18T03:11:44.745Z,99477.00
2022-09-18T03:15:46.287Z,99468.41
2022-09-18T03:19:47.591Z,99463.19
2022-09-18T03:23:55.810Z,99453.72
2022-09-18T03:28:03.873Z,99460.59
2022-09-18T03:32:11.821Z,99466.66
2022-09-18T03:36:13.434Z,99468.38
2022-09-18T03:40:22.888Z,99464.06
2022-09-18T03:44:30.885Z,99468.41
2022-09-18T03:48:32.177Z,99465.81
2022-09-18T03:52:34.300Z,99458.00
2022-09-18T03:56:38.521Z,99460.59
2022-09-18T04:00:39.840Z,99467.50
2022-09-18T04:04:47.828Z,99466.63
2022-09-18T04:08:49.985Z,99470.91
2022-09-18T04:12:51.365Z,99467.47
2022-09-18T04:16:52.665Z,99470.00
2022-09-18T04:20:53.968Z,99473.41
2022-09-18T04:24:55.420Z,99469.06
2022-09-18T04:28:56.917Z,99472.47
2022-09-18T04:33:04.914Z,99475.03
2022-09-18T04:37:12.797Z,99467.25
2022-09-18T04:41:14.161Z,99468.91
2022-09-18T04:45:15.594Z,99466.31
2022-09-18T04:49:17.393Z,99467.16
2022-09-18T04:53:18.860Z,99457.63
2022-09-18T04:57:20.272Z,99459.28
2022-09-18T05:01:21.626Z,99457.53
2022-09-18T05:05:23.033Z,99461.84
2022-09-18T05:09:24.433Z,99462.63
2022-09-18T05:13:26.250Z,99460.88
2022-09-18T05:17:27.527Z,99470.38
2022-09-18T05:21:28.904Z,99471.22
2022-09-18T05:25:31.103Z,99471.22
2022-09-18T05:29:38.942Z,99482.41
2022-09-18T05:33:41.668Z,99485.84
2022-09-18T05:37:42.974Z,99486.69
2022-09-18T05:41:44.400Z,99484.97
2022-09-18T05:45:46.395Z,99485.88
2022-09-18T05:49:47.699Z,99493.59
2022-09-18T05:53:49.277Z,99493.72
2022-09-18T05:57:54.161Z,99496.38
2022-09-18T06:02:01.992Z,99490.41
2022-09-18T06:06:03.501Z,99482.78
2022-09-18T06:10:11.959Z,99489.75
2022-09-18T06:14:13.298Z,99484.63
2022-09-18T06:18:15.107Z,99486.47
2022-09-18T06:22:16.435Z,99489.16
2022-09-18T06:26:17.975Z,99496.97
2022-09-18T06:30:19.237Z,99500.41
2022-09-18T06:34:20.553Z,99515.97
2022-09-18T06:38:21.849Z,99502.97
2022-09-18T06:42:23.221Z,99505.47
2022-09-18T06:46:24.796Z,99499.34
2022-09-18T06:50:26.258Z,99505.44
2022-09-18T06:54:27.592Z,99513.94
2022-09-18T06:58:36.242Z,99511.88
2022-09-18T07:02:37.869Z,99508.84
2022-09-18T07:06:45.867Z,99511.09
2022-09-18T07:10:53.881Z,99519.75
2022-09-18T07:14:55.379Z,99515.66
2022-09-18T07:18:57.133Z,99521.00
2022-09-18T07:22:59.591Z,99516.84
2022-09-18T07:27:00.847Z,99522.94
2022-09-18T07:31:03.152Z,99518.28
2022-09-18T07:35:04.710Z,99520.31
2022-09-18T07:39:05.998Z,99517.06
2022-09-18T07:43:08.906Z,99518.22
2022-09-18T07:47:11.673Z,99507.97
2022-09-18T07:51:13.118Z,99511.00
2022-09-18T07:55:14.489Z,99515.00
2022-09-18T07:59:21.957Z,99517.66
2022-09-18T08:03:25.279Z,99522.56
2022-09-18T08:07:26.545Z,99512.47
2022-09-18T08:11:34.258Z,99516.91
2022-09-18T08:15:37.629Z,99518.72
2022-09-18T08:19:39.066Z,99518.03
2022-09-18T08:23:40.369Z,99524.66
2022-09-18T08:27:42.370Z,99513.88
2022-09-18T08:31:44.136Z,99511.53
2022-09-18T08:35:45.556Z,99510.38
2022-09-18T08:39:46.841Z,99514.03
2022-09-18T08:44:13.971Z,99513.03
2022-09-18T08:48:25.386Z,99510.53
2022-09-18T08:52:28.469Z,99511.47
2022-09-18T08:56:30.057Z,99512.66
2022-09-18T09:00:41.644Z,99521.59
2022-09-18T09:04:43.633Z,99519.25
2022-09-18T09:09:14.901Z,99509.88
2022-09-18T09:13:18.952Z,99516.44
2022-09-18T09:17:37.812Z,99514.50
2022-09-18T09:21:39.094Z,99513.63
2022-09-18T09:25:48.001Z,99503.25
2022-09-18T09:29:52.188Z,99512.66
2022-09-18T09:34:07.422Z,99503.53
2022-09-18T09:38:28.342Z,99509.00
2022-09-18T09:42:42.221Z,99508.00
2022-09-18T09:47:05.085Z,99507.63
2022-09-18T09:51:32.953Z,99505.75
2022-09-18T09:55:53.328Z,99518.56
2022-09-18T09:59:54.633Z,99508.03
2022-09-18T10:04:20.947Z,99504.13
2022-09-18T10:08:27.420Z,99498.63
2022-09-18T10:12:47.457Z,99487.06
2022-09-18T10:16:51.118Z,99483.00
2022-09-18T10:20:56.226Z,99487.75
2022-09-18T10:25:00.920Z,99482.19
2022-09-18T10:29:02.297Z,99497.56
2022-09-18T10:33:03.733Z,99484.72
2022-09-18T10:37:05.911Z,99488.56
2022-09-18T10:41:18.086Z,99482.13
2022-09-18T10:45:24.941Z,99477.72
2022-09-18T10:49:28.973Z,99467.34
2022-09-18T10:53:35.041Z,99470.03
2022-09-18T10:57:44.035Z,99478.13
2022-09-18T11:01:45.353Z,99469.97
2022-09-18T11:05:49.080Z,99465.69
2022-09-18T11:09:50.652Z,99460.63
2022-09-18T11:13:59.624Z,99465.50
2022-09-18T11:18:02.536Z,99457.50
2022-09-18T11:22:05.948Z,99461.69
2022-09-18T11:26:12.275Z,99452.97
2022-09-18T11:30:24.039Z,99446.44
2022-09-18T11:34:25.400Z,99450.97
2022-09-18T11:38:39.078Z,99439.56
2022-09-18T11:42:44.983Z,99441.16
2022-09-18T11:46:58.392Z,99443.13
2022-09-18T11:51:02.406Z,99432.91
2022-09-18T11:55:16.028Z,99427.63
2022-09-18T11:59:37.559Z,99435.72
2022-09-18T12:03:55.248Z,99421.03
2022-09-18T12:07:58.301Z,99419.00
2022-09-18T12:12:03.309Z,99409.63
2022-09-18T12:16:14.034Z,99388.41
2022-09-18T12:20:22.668Z,99405.00
2022-09-18T12:24:24.182Z,99401.84
2022-09-18T12:28:33.749Z,99401.66
2022-09-18T12:32:41.997Z,99407.47
2022-09-18T12:36:43.240Z,99404.84
2022-09-18T12:40:58.653Z,99401.69
2022-09-18T12:45:14.915Z,99377.03
2022-09-18T12:49:19.289Z,99379.13
2022-09-18T12:53:20.706Z,99374.34
2022-09-18T12:57:30.216Z,99369.97
2022-09-18T13:01:34.928Z,99363.94
2022-09-18T13:05:55.111Z,99357.88
2022-09-18T13:10:03.176Z,99346.56
2022-09-18T13:14:26.620Z,99345.59
2022-09-18T13:18:41.013Z,99334.72
2022-09-18T13:22:45.234Z,99334.47
2022-09-18T13:26:47.928Z,99331.69
2022-09-18T13:31:09.618Z,99325.53
2022-09-18T13:35:13.986Z,99316.72
2022-09-18T13:39:35.513Z,99307.94
2022-09-18T13:43:52.229Z,99300.81
2022-09-18T13:47:56.680Z,99291.56
2022-09-18T13:52:16.747Z,99285.31
2022-09-18T13:56:18.097Z,99301.59
2022-09-18T14:00:19.403Z,99298.31
2022-09-18T14:04:39.200Z,99295.22
2022-09-18T14:08:40.561Z,99288.69
2022-09-18T14:12:41.844Z,99286.81
2022-09-18T14:16:44.621Z,99268.31
2022-09-18T14:20:51.267Z,99273.41
2022-09-18T14:24:59.035Z,99272.59
2022-09-18T14:29:18.711Z,99260.78
2022-09-18T14:33:27.538Z,99247.47
2022-09-18T14:37:36.296Z,99263.44
2022-09-18T14:41:38.360Z,99254.00
2022-09-18T14:45:40.324Z,99250.19
2022-09-18T14:49:42.852Z,99232.22
2022-09-18T14:53:53.076Z,99228.31
2022-09-18T14:57:57.156Z,99228.22
2022-09-18T15:02:24.059Z,99218.50
2022-09-18T15:06:34.624Z,99221.72
2022-09-18T15:10:38.641Z,99227.13
2022-09-18T15:14:45.585Z,99228.41
2022-09-18T15:18:50.897Z,99225.56
2022-09-18T15:22:53.394Z,99202.63
2022-09-18T15:26:56.972Z,99227.63
2022-09-18T15:31:00.939Z,99217.47
2022-09-18T15:35:02.676Z,99237.00
2022-09-18T15:39:05.756Z,99210.19
2022-09-18T15:43:27.041Z,99235.56
2022-09-18T15:47:28.464Z,99224.69
2022-09-18T15:51:31.068Z,99234.16
2022-09-18T15:55:53.995Z,99228.84
2022-09-18T15:59:57.248Z,99224.06
2022-09-18T16:04:04.471Z,99220.34
2022-09-18T16:08:16.687Z,99229.66
2022-09-18T16:12:34.685Z,99222.84
2022-09-18T16:16:36.498Z,99230.06
2022-09-18T16:20:42.454Z,99233.63
2022-09-18T16:24:43.786Z,99230.97
2022-09-18T16:28:50.358Z,99234.16
2022-09-18T16:32:59.131Z,99242.25
2022-09-18T16:37:00.412Z,99233.75
2022-09-18T16:41:08.276Z,99231.84
2022-09-18T16:45:10.184Z,99233.41
2022-09-18T16:49:13.276Z,99229.38
2022-09-18T16:53:15.043Z,99228.88
2022-09-18T16:57:18.712Z,99231.06
2022-09-18T17:01:36.252Z,99233.09
2022-09-18T17:05:49.733Z,99230.81
2022-09-18T17:09:58.197Z,99231.00
2022-09-18T17:14:13.187Z,99236.53
2022-09-18T17:18:14.630Z,99234.97
2022-09-18T17:22:18.191Z,99227.34
2022-09-18T17:26:23.088Z,99224.94
2022-09-18T17:30:25.348Z,99226.81
2022-09-18T17:34:26.712Z,99233.91
2022-09-18T17:38:28.127Z,99233.97
2022-09-18T17:42:29.430Z,99235.03
2022-09-18T17:46:30.738Z,99234.28
2022-09-18T17:50:33.688Z,99234.41
2022-09-18T17:54:36.506Z,99230.16
2022-09-18T17:58:40.812Z,99227.72
2022-09-18T18:02:42.236Z,99239.94
2022-09-18T18:06:46.053Z,99258.19
2022-09-18T18:10:47.329Z,99254.75
2022-09-18T18:14:48.593Z,99233.13
2022-09-18T18:18:51.285Z,99238.44
2022-09-18T18:22:59.220Z,99252.47
2022-09-18T18:27:00.683Z,99264.63
2022-09-18T18:31:05.747Z,99254.28
2022-09-18T18:35:14.395Z,99262.25
2022-09-18T18:39:15.893Z,99263.22
2022-09-18T18:43:17.180Z,99267.63
2022-09-18T18:47:20.338Z,99269.44
2022-09-18T18:51:21.835Z,99278.19
2022-09-18T18:55:23.225Z,99277.31
2022-09-18T18:59:25.549Z,99277.31
2022-09-18T19:03:26.985Z,99277.34
2022-09-18T19:07:31.645Z,99282.53
2022-09-18T19:11:40.204Z,99290.41
2022-09-18T19:15:41.521Z,99293.03
2022-09-18T19:19:42.816Z,99285.28
2022-09-18T19:23:47.840Z,99292.31
2022-09-18T19:27:49.152Z,99287.06
2022-09-18T19:31:50.814Z,99296.66
2022-09-18T19:35:52.180Z,99302.84
2022-09-18T19:39:53.537Z,99307.22
2022-09-18T19:43:55.036Z,99302.00
2022-09-18T19:47:56.413Z,99300.31
2022-09-18T19:51:58.703Z,99300.38
2022-09-18T19:56:00.160Z,99299.50
2022-09-18T20:00:01.842Z,99291.69
2022-09-18T20:04:03.189Z,99296.03
2022-09-18T20:08:13.277Z,99300.41
2022-09-18T20:12:14.820Z,99300.50
2022-09-18T20:16:17.629Z,99304.94
2022-09-18T20:20:19.153Z,99299.72
2022-09-18T20:24:20.529Z,99306.63
2022-09-18T20:28:22.611Z,99312.69
2022-09-18T20:32:24.191Z,99308.31
2022-09-18T20:36:26.577Z,99310.09
2022-09-18T20:40:28.090Z,99307.50
2022-09-18T20:44:30.307Z,99321.47
2022-09-18T20:48:35.505Z,99311.03
2022-09-18T20:52:37.840Z,99318.00
2022-09-18T20:56:46.737Z,99314.50
2022-09-18T21:00:48.671Z,99315.44
2022-09-18T21:04:52.301Z,99317.16
2022-09-18T21:08:54.628Z,99321.56
2022-09-18T21:12:58.024Z,99325.94
2022-09-18T21:17:06.268Z,99330.34
2022-09-18T21:21:09.067Z,99336.47
2022-09-18T21:25:11.226Z,99352.16
2022-09-18T21:29:13.901Z,99369.66
2022-09-18T21:33:16.048Z,99372.47
2022-09-18T21:37:18.481Z,99383.16
2022-09-18T21:41:27.378Z,99380.78
2022-09-18T21:45:37.402Z,99386.22
2022-09-18T21:49:38.687Z,99389.88
2022-09-18T21:53:41.269Z,99395.22
2022-09-18T21:57:42.614Z,99400.53
2022-09-18T22:01:50.574Z,99400.56
2022-09-18T22:05:52.956Z,99405.84
2022-09-18T22:09:54.305Z,99408.50
2022-09-18T22:13:58.340Z,99411.09
2022-09-18T22:18:00.049Z,99421.50
2022-09-18T22:22:07.400Z,99428.44
2022-09-18T22:26:24.797Z,99420.63
2022-09-18T22:30:43.888Z,99426.75
2022-09-18T22:34:55.833Z,99428.56
2022-09-18T22:38:58.740Z,99428.59
2022-09-18T22:43:24.028Z,99429.47
2022-09-18T22:47:30.683Z,99434.72
2022-09-18T22:51:47.479Z,99435.59
2022-09-18T22:55:49.685Z,99433.94
2022-09-18T22:59:50.988Z,99439.19
2022-09-18T23:03:54.208Z,99446.19
2022-09-18T23:08:02.352Z,99443.63
2022-09-18T23:12:04.046Z,99441.06
2022-09-18T23:16:13.384Z,99442.00
2022-09-18T23:20:15.474Z,99445.56
2022-09-18T23:24:16.916Z,99449.06
2022-09-18T23:28:18.215Z,99458.69
2022-09-18T23:36:37.454Z,99466.59
2022-09-18T23:40:39.035Z,99471.81
2022-09-18T23:44:40.488Z,99484.84
2022-09-18T23:48:42.268Z,99476.19
2022-09-18T23:52:50.449Z,99477.91
2022-09-18T23:56:52.192Z,99475.34
